Alba, Illinois
Current Conditions -  °F | °C
As of 11:52 AM on Friday 28 Nov 2014 (Local Time) from KMLI Reporting Station
Clear Clear  
Wind Chill: 23°   Ceiling: Unl
Heat Index: 30°   Visibility: 10mi
Dew Point: 23°   Wind: 7mph
Humidity: 75%   Direction: 160°SSE
Pressure: 29.99"   Gusts: NA
Location:  41.4097°N, 90.0293°W
Report Text: KMLI 281752Z 16006KT 10SM CLR M01/M05 A2999 RMK AO2 SLP165 T10111050 11011 21083 58041
Loading
Personal Weather Stations






























Interactive Weather Map New forecast layout! Learn more

10-Day Weather Forecast

Advertisements
Track Severe Weather on mobile